weather.gov     
National Weather Service

Terminal Aerodrome Forecast
NWS Homepage
This page is being discontinued on March 12, 2014.
The same data is available at this site. Please update your bookmarks.
Thank you, and we apologize for the inconvenience.
Please send an email to SR-SRH.Webmaster@noaa.gov with any concerns.


Current Version
Previous Version:    01  02  03  04  05  06  07  08  09  10  11  12  13  14  15  16  17  18  19  20  21  22  23  24  25  26  27  28  29  30  
   31  32  33  
[Printable]
362
FTUS43 KMQT 170500
TAFCMX
TAF
KCMX 170535Z 1706/1806 09015G23KT 1SM -SN OVC004
     FM171000 11011KT 1/2SM SN OVC003
     FM171600 11007KT 2SM -SN OVC006
     FM171800 11006KT P6SM OVC006
     FM172200 28009KT P6SM OVC006
     FM180100 30010KT P6SM OVC012=


U.S. Dept. of Commerce
NOAA National Weather Service
1325 East West Highway
Silver Spring, MD 20910
E-mail: w-nws.webmaster@noaa.gov
Page last modified: May 16, 2007
NATIONAL WEATHER SERVICE: for Safety, for Work, for Fun - FOR LIFE